sensor_id;sensor_type;location;lat;lon;timestamp;pressure;altitude;pressure_sealevel;temperature;humidity
67803;BME280;54601;51.378;-1.342;2022-07-29T00:02:11;100472.42;;;22.66;32.31
67803;BME280;54601;51.378;-1.342;2022-07-29T00:04:37;100469.18;;;22.51;32.47
67803;BME280;54601;51.378;-1.342;2022-07-29T00:07:04;100467.50;;;22.57;32.38
67803;BME280;54601;51.378;-1.342;2022-07-29T00:09:30;100469.54;;;22.61;32.34
67803;BME280;54601;51.378;-1.342;2022-07-29T00:11:58;100471.66;;;22.35;32.35
67803;BME280;54601;51.378;-1.342;2022-07-29T00:14:20;100475.30;;;22.18;32.23
67803;BME280;54601;51.378;-1.342;2022-07-29T00:16:47;100473.40;;;22.44;32.50
67803;BME280;54601;51.378;-1.342;2022-07-29T00:19:12;100465.57;;;22.65;32.22
67803;BME280;54601;51.378;-1.342;2022-07-29T00:21:38;100464.94;;;21.98;32.42
67803;BME280;54601;51.378;-1.342;2022-07-29T00:24:04;100466.98;;;22.49;32.38
67803;BME280;54601;51.378;-1.342;2022-07-29T00:26:29;100468.62;;;22.57;32.29
67803;BME280;54601;51.378;-1.342;2022-07-29T00:28:55;100470.74;;;22.40;32.49
67803;BME280;54601;51.378;-1.342;2022-07-29T00:31:21;100468.80;;;22.34;32.53
67803;BME280;54601;51.378;-1.342;2022-07-29T00:33:47;100468.70;;;22.14;32.49
67803;BME280;54601;51.378;-1.342;2022-07-29T00:36:13;100466.30;;;22.18;32.44
67803;BME280;54601;51.378;-1.342;2022-07-29T00:38:38;100463.55;;;21.96;32.35
67803;BME280;54601;51.378;-1.342;2022-07-29T00:41:04;100461.96;;;22.43;32.38
67803;BME280;54601;51.378;-1.342;2022-07-29T00:43:30;100463.89;;;22.22;32.62
67803;BME280;54601;51.378;-1.342;2022-07-29T00:45:56;100462.57;;;22.16;32.42
67803;BME280;54601;51.378;-1.342;2022-07-29T00:48:22;100464.44;;;22.37;32.43
67803;BME280;54601;51.378;-1.342;2022-07-29T00:50:49;100464.39;;;21.82;32.49
67803;BME280;54601;51.378;-1.342;2022-07-29T00:53:13;100465.83;;;22.09;32.48
67803;BME280;54601;51.378;-1.342;2022-07-29T00:55:39;100465.81;;;22.03;32.53
67803;BME280;54601;51.378;-1.342;2022-07-29T00:58:05;100467.05;;;22.22;32.56
67803;BME280;54601;51.378;-1.342;2022-07-29T01:00:31;100465.40;;;22.04;32.52
67803;BME280;54601;51.378;-1.342;2022-07-29T01:02:57;100465.04;;;22.21;32.61
67803;BME280;54601;51.378;-1.342;2022-07-29T01:05:24;100458.88;;;21.96;32.58
67803;BME280;54601;51.378;-1.342;2022-07-29T01:07:51;100459.73;;;21.90;32.65
67803;BME280;54601;51.378;-1.342;2022-07-29T01:10:15;100459.61;;;22.09;32.66
67803;BME280;54601;51.378;-1.342;2022-07-29T01:12:40;100462.13;;;22.19;32.57
67803;BME280;54601;51.378;-1.342;2022-07-29T01:15:08;100462.90;;;22.13;32.62
67803;BME280;54601;51.378;-1.342;2022-07-29T01:17:34;100463.43;;;22.44;32.48
67803;BME280;54601;51.378;-1.342;2022-07-29T01:20:03;100463.37;;;21.94;32.56
67803;BME280;54601;51.378;-1.342;2022-07-29T01:22:28;100458.89;;;22.23;32.48
67803;BME280;54601;51.378;-1.342;2022-07-29T01:25:03;100455.81;;;22.20;32.49
67803;BME280;54601;51.378;-1.342;2022-07-29T01:27:29;100455.48;;;22.13;32.32
67803;BME280;54601;51.378;-1.342;2022-07-29T01:29:44;100457.30;;;22.06;32.39
67803;BME280;54601;51.378;-1.342;2022-07-29T01:32:10;100464.18;;;21.99;32.47
67803;BME280;54601;51.378;-1.342;2022-07-29T01:34:40;100465.33;;;22.48;32.39
67803;BME280;54601;51.378;-1.342;2022-07-29T01:37:06;100466.59;;;22.11;32.33
67803;BME280;54601;51.378;-1.342;2022-07-29T01:39:29;100464.80;;;22.30;32.33
67803;BME280;54601;51.378;-1.342;2022-07-29T01:41:55;100468.03;;;22.27;32.37
67803;BME280;54601;51.378;-1.342;2022-07-29T01:44:20;100468.68;;;22.01;32.40
67803;BME280;54601;51.378;-1.342;2022-07-29T01:46:45;100465.74;;;22.20;32.44
67803;BME280;54601;51.378;-1.342;2022-07-29T01:49:10;100462.66;;;22.39;32.20
67803;BME280;54601;51.378;-1.342;2022-07-29T01:51:39;100464.30;;;22.25;32.35
67803;BME280;54601;51.378;-1.342;2022-07-29T01:54:03;100468.58;;;22.19;32.43
67803;BME280;54601;51.378;-1.342;2022-07-29T01:56:26;100468.01;;;22.10;32.51
67803;BME280;54601;51.378;-1.342;2022-07-29T01:58:52;100467.22;;;22.08;32.54
67803;BME280;54601;51.378;-1.342;2022-07-29T02:01:18;100465.50;;;22.05;32.55
67803;BME280;54601;51.378;-1.342;2022-07-29T02:03:44;100467.34;;;22.03;32.59
67803;BME280;54601;51.378;-1.342;2022-07-29T02:06:10;100465.85;;;21.97;32.67
67803;BME280;54601;51.378;-1.342;2022-07-29T02:08:34;100465.47;;;21.99;32.61
67803;BME280;54601;51.378;-1.342;2022-07-29T02:11:01;100466.81;;;22.00;32.63
67803;BME280;54601;51.378;-1.342;2022-07-29T02:13:26;100468.27;;;21.88;32.76
67803;BME280;54601;51.378;-1.342;2022-07-29T02:15:51;100469.25;;;21.78;32.60
67803;BME280;54601;51.378;-1.342;2022-07-29T02:18:18;100469.31;;;21.88;32.77
67803;BME280;54601;51.378;-1.342;2022-07-29T02:20:46;100470.90;;;22.05;32.58
67803;BME280;54601;51.378;-1.342;2022-07-29T02:23:10;100466.01;;;21.94;32.68
67803;BME280;54601;51.378;-1.342;2022-07-29T02:25:34;100466.41;;;22.03;32.57
67803;BME280;54601;51.378;-1.342;2022-07-29T02:28:00;100467.04;;;22.02;32.55
67803;BME280;54601;51.378;-1.342;2022-07-29T02:30:27;100466.54;;;21.94;32.66
67803;BME280;54601;51.378;-1.342;2022-07-29T02:32:52;100464.32;;;21.93;32.66
67803;BME280;54601;51.378;-1.342;2022-07-29T02:35:18;100465.78;;;22.13;32.42
67803;BME280;54601;51.378;-1.342;2022-07-29T02:37:44;100466.59;;;21.95;32.63
67803;BME280;54601;51.378;-1.342;2022-07-29T02:40:11;100466.24;;;21.97;32.60
67803;BME280;54601;51.378;-1.342;2022-07-29T02:42:36;100466.36;;;21.96;32.61
67803;BME280;54601;51.378;-1.342;2022-07-29T02:45:01;100463.91;;;21.97;32.57
67803;BME280;54601;51.378;-1.342;2022-07-29T02:47:32;100462.18;;;21.80;32.77
67803;BME280;54601;51.378;-1.342;2022-07-29T02:49:56;100461.46;;;21.99;32.59
67803;BME280;54601;51.378;-1.342;2022-07-29T02:52:23;100462.63;;;22.16;32.60
67803;BME280;54601;51.378;-1.342;2022-07-29T02:54:49;100463.89;;;21.91;32.64
67803;BME280;54601;51.378;-1.342;2022-07-29T02:57:17;100460.40;;;21.89;32.66
67803;BME280;54601;51.378;-1.342;2022-07-29T02:59:37;100454.75;;;21.90;32.62
67803;BME280;54601;51.378;-1.342;2022-07-29T03:02:02;100452.00;;;21.86;32.68
67803;BME280;54601;51.378;-1.342;2022-07-29T03:04:28;100452.41;;;21.87;32.66
67803;BME280;54601;51.378;-1.342;2022-07-29T03:06:54;100454.20;;;21.87;32.66
67803;BME280;54601;51.378;-1.342;2022-07-29T03:09:20;100458.36;;;22.05;32.71
67803;BME280;54601;51.378;-1.342;2022-07-29T03:11:45;100458.04;;;21.76;32.80
67803;BME280;54601;51.378;-1.342;2022-07-29T03:14:11;100456.24;;;21.75;32.80
67803;BME280;54601;51.378;-1.342;2022-07-29T03:16:37;100456.62;;;21.76;32.78
67803;BME280;54601;51.378;-1.342;2022-07-29T03:19:03;100457.08;;;21.79;32.72
67803;BME280;54601;51.378;-1.342;2022-07-29T03:21:28;100454.26;;;22.06;32.66
67803;BME280;54601;51.378;-1.342;2022-07-29T03:23:54;100452.62;;;21.71;32.80
67803;BME280;54601;51.378;-1.342;2022-07-29T03:26:19;100454.40;;;21.91;32.82
67803;BME280;54601;51.378;-1.342;2022-07-29T03:28:45;100456.51;;;21.79;32.69
67803;BME280;54601;51.378;-1.342;2022-07-29T03:31:11;100457.28;;;21.66;32.84
67803;BME280;54601;51.378;-1.342;2022-07-29T03:33:37;100457.23;;;21.98;32.73
67803;BME280;54601;51.378;-1.342;2022-07-29T03:36:03;100461.82;;;21.76;32.72
67803;BME280;54601;51.378;-1.342;2022-07-29T03:38:30;100466.10;;;21.75;32.70
67803;BME280;54601;51.378;-1.342;2022-07-29T03:40:58;100467.68;;;21.71;32.75
67803;BME280;54601;51.378;-1.342;2022-07-29T03:43:20;100465.34;;;21.69;32.77
67803;BME280;54601;51.378;-1.342;2022-07-29T03:45:49;100465.81;;;21.99;32.65
67803;BME280;54601;51.378;-1.342;2022-07-29T03:48:14;100469.59;;;21.74;32.68
67803;BME280;54601;51.378;-1.342;2022-07-29T03:50:37;100470.01;;;21.70;32.73
67803;BME280;54601;51.378;-1.342;2022-07-29T03:53:03;100466.74;;;21.69;32.74
67803;BME280;54601;51.378;-1.342;2022-07-29T03:55:33;100462.75;;;21.89;32.75
67803;BME280;54601;51.378;-1.342;2022-07-29T03:57:57;100458.97;;;21.65;32.78
67803;BME280;54601;51.378;-1.342;2022-07-29T04:00:22;100459.33;;;21.61;32.81
67803;BME280;54601;51.378;-1.342;2022-07-29T04:02:47;100458.82;;;21.69;32.69
67803;BME280;54601;51.378;-1.342;2022-07-29T04:05:13;100462.87;;;21.67;32.70
67803;BME280;54601;51.378;-1.342;2022-07-29T04:07:39;100465.74;;;21.62;32.79
67803;BME280;54601;51.378;-1.342;2022-07-29T04:10:06;100469.87;;;21.70;32.63
67803;BME280;54601;51.378;-1.342;2022-07-29T04:12:30;100472.82;;;21.46;32.68
67803;BME280;54601;51.378;-1.342;2022-07-29T04:14:56;100471.78;;;21.66;32.67
67803;BME280;54601;51.378;-1.342;2022-07-29T04:17:22;100472.02;;;21.49;32.86
67803;BME280;54601;51.378;-1.342;2022-07-29T04:19:48;100475.71;;;21.53;32.86
67803;BME280;54601;51.378;-1.342;2022-07-29T04:22:14;100477.98;;;21.48;32.89
67803;BME280;54601;51.378;-1.342;2022-07-29T04:24:39;100478.25;;;21.49;32.82
67803;BME280;54601;51.378;-1.342;2022-07-29T04:27:05;100483.00;;;21.70;32.86
67803;BME280;54601;51.378;-1.342;2022-07-29T04:29:31;100486.55;;;21.48;32.83
67803;BME280;54601;51.378;-1.342;2022-07-29T04:31:57;100490.96;;;21.49;32.81
67803;BME280;54601;51.378;-1.342;2022-07-29T04:34:23;100487.07;;;21.74;32.75
67803;BME280;54601;51.378;-1.342;2022-07-29T04:36:49;100483.27;;;21.23;32.85
67803;BME280;54601;51.378;-1.342;2022-07-29T04:39:15;100485.01;;;21.44;32.83
67803;BME280;54601;51.378;-1.342;2022-07-29T04:41:40;100486.58;;;21.36;32.94
67803;BME280;54601;51.378;-1.342;2022-07-29T04:44:06;100483.88;;;21.45;32.83
67803;BME280;54601;51.378;-1.342;2022-07-29T04:46:32;100481.51;;;21.35;32.95
67803;BME280;54601;51.378;-1.342;2022-07-29T04:48:58;100480.46;;;21.61;32.87
67803;BME280;54601;51.378;-1.342;2022-07-29T04:51:24;100482.27;;;21.82;32.64
67803;BME280;54601;51.378;-1.342;2022-07-29T04:53:50;100482.44;;;21.42;32.84
67803;BME280;54601;51.378;-1.342;2022-07-29T04:56:16;100476.66;;;21.70;32.73
67803;BME280;54601;51.378;-1.342;2022-07-29T04:58:41;100474.75;;;21.57;32.91
67803;BME280;54601;51.378;-1.342;2022-07-29T05:01:07;100477.16;;;21.61;32.91
67803;BME280;54601;51.378;-1.342;2022-07-29T05:03:33;100477.21;;;21.64;32.80
67803;BME280;54601;51.378;-1.342;2022-07-29T05:05:59;100475.26;;;22.04;32.63
67803;BME280;54601;51.378;-1.342;2022-07-29T05:08:25;100474.99;;;21.38;32.84
67803;BME280;54601;51.378;-1.342;2022-07-29T05:10:51;100477.97;;;21.72;32.69
67803;BME280;54601;51.378;-1.342;2022-07-29T05:13:17;100479.77;;;21.42;32.78
67803;BME280;54601;51.378;-1.342;2022-07-29T05:15:42;100481.08;;;21.75;32.66
67803;BME280;54601;51.378;-1.342;2022-07-29T05:18:08;100483.19;;;21.56;32.65
67803;BME280;54601;51.378;-1.342;2022-07-29T05:20:34;100483.18;;;21.24;32.76
67803;BME280;54601;51.378;-1.342;2022-07-29T05:23:01;100483.32;;;21.74;32.68
67803;BME280;54601;51.378;-1.342;2022-07-29T05:25:27;100483.45;;;21.59;32.87
67803;BME280;54601;51.378;-1.342;2022-07-29T05:27:52;100482.68;;;21.93;32.78
67803;BME280;54601;51.378;-1.342;2022-07-29T05:30:18;100482.80;;;21.72;32.72
67803;BME280;54601;51.378;-1.342;2022-07-29T05:32:44;100484.91;;;21.73;32.74
67803;BME280;54601;51.378;-1.342;2022-07-29T05:35:09;100484.51;;;21.77;32.70
67803;BME280;54601;51.378;-1.342;2022-07-29T05:37:35;100492.21;;;21.32;32.97
67803;BME280;54601;51.378;-1.342;2022-07-29T05:40:02;100493.71;;;21.71;32.77
67803;BME280;54601;51.378;-1.342;2022-07-29T05:42:27;100500.00;;;21.94;32.86
67803;BME280;54601;51.378;-1.342;2022-07-29T05:44:53;100501.30;;;21.40;32.89
67803;BME280;54601;51.378;-1.342;2022-07-29T05:47:19;100502.79;;;21.42;32.87
67803;BME280;54601;51.378;-1.342;2022-07-29T05:49:45;100507.24;;;21.50;32.78
67803;BME280;54601;51.378;-1.342;2022-07-29T05:52:11;100510.53;;;21.26;33.08
67803;BME280;54601;51.378;-1.342;2022-07-29T05:54:36;100512.57;;;21.39;32.95
67803;BME280;54601;51.378;-1.342;2022-07-29T05:57:03;100516.16;;;21.58;32.99
67803;BME280;54601;51.378;-1.342;2022-07-29T05:59:28;100516.63;;;21.77;32.79
67803;BME280;54601;51.378;-1.342;2022-07-29T06:01:54;100514.49;;;21.67;32.90
67803;BME280;54601;51.378;-1.342;2022-07-29T06:04:20;100515.71;;;21.75;33.12
67803;BME280;54601;51.378;-1.342;2022-07-29T06:06:46;100512.42;;;21.68;32.91
67803;BME280;54601;51.378;-1.342;2022-07-29T06:09:12;100515.27;;;21.51;33.11
67803;BME280;54601;51.378;-1.342;2022-07-29T06:11:38;100517.72;;;21.52;33.11
67803;BME280;54601;51.378;-1.342;2022-07-29T06:14:03;100515.73;;;21.55;33.07
67803;BME280;54601;51.378;-1.342;2022-07-29T06:16:29;100512.51;;;21.34;33.03
67803;BME280;54601;51.378;-1.342;2022-07-29T06:18:55;100512.19;;;21.38;33.02
67803;BME280;54601;51.378;-1.342;2022-07-29T06:21:21;100510.00;;;22.01;32.84
67803;BME280;54601;51.378;-1.342;2022-07-29T06:23:47;100513.74;;;21.64;32.94
67803;BME280;54601;51.378;-1.342;2022-07-29T06:26:13;100512.39;;;21.63;33.04
67803;BME280;54601;51.378;-1.342;2022-07-29T06:28:39;100512.23;;;21.74;32.90
67803;BME280;54601;51.378;-1.342;2022-07-29T06:31:05;100513.36;;;21.89;32.68
67803;BME280;54601;51.378;-1.342;2022-07-29T06:33:30;100515.25;;;22.14;32.41
67803;BME280;54601;51.378;-1.342;2022-07-29T06:35:56;100514.37;;;22.40;31.88
67803;BME280;54601;51.378;-1.342;2022-07-29T06:38:22;100516.52;;;22.88;31.46
67803;BME280;54601;51.378;-1.342;2022-07-29T06:40:48;100516.84;;;22.78;31.58
67803;BME280;54601;51.378;-1.342;2022-07-29T06:43:14;100519.05;;;23.06;31.36
67803;BME280;54601;51.378;-1.342;2022-07-29T06:45:40;100520.02;;;23.27;31.61
67803;BME280;54601;51.378;-1.342;2022-07-29T06:48:06;100520.75;;;23.07;31.55
67803;BME280;54601;51.378;-1.342;2022-07-29T06:50:31;100522.49;;;23.11;31.66
67803;BME280;54601;51.378;-1.342;2022-07-29T06:52:57;100528.08;;;22.76;31.67
67803;BME280;54601;51.378;-1.342;2022-07-29T06:55:23;100534.39;;;23.37;31.67
67803;BME280;54601;51.378;-1.342;2022-07-29T06:57:49;100538.39;;;23.43;31.68
67803;BME280;54601;51.378;-1.342;2022-07-29T07:00:15;100540.71;;;23.57;31.65
67803;BME280;54601;51.378;-1.342;2022-07-29T07:02:40;100542.68;;;23.45;31.63
67803;BME280;54601;51.378;-1.342;2022-07-29T07:05:07;100545.74;;;23.72;31.70
67803;BME280;54601;51.378;-1.342;2022-07-29T07:07:32;100548.47;;;23.58;31.66
67803;BME280;54601;51.378;-1.342;2022-07-29T07:09:58;100545.44;;;23.47;31.57
67803;BME280;54601;51.378;-1.342;2022-07-29T07:12:24;100544.46;;;23.62;31.52
67803;BME280;54601;51.378;-1.342;2022-07-29T07:14:49;100547.36;;;24.07;31.41
67803;BME280;54601;51.378;-1.342;2022-07-29T07:17:15;100549.41;;;24.06;31.47
67803;BME280;54601;51.378;-1.342;2022-07-29T07:19:41;100549.17;;;24.26;31.32
67803;BME280;54601;51.378;-1.342;2022-07-29T07:22:07;100549.19;;;23.99;31.38
67803;BME280;54601;51.378;-1.342;2022-07-29T07:24:32;100545.80;;;24.13;31.30
67803;BME280;54601;51.378;-1.342;2022-07-29T07:26:58;100545.19;;;24.22;31.25
67803;BME280;54601;51.378;-1.342;2022-07-29T07:29:24;100548.65;;;24.25;31.30
67803;BME280;54601;51.378;-1.342;2022-07-29T07:31:50;100549.55;;;24.31;31.27
67803;BME280;54601;51.378;-1.342;2022-07-29T07:34:15;100549.41;;;24.42;31.20
67803;BME280;54601;51.378;-1.342;2022-07-29T07:36:41;100544.29;;;24.53;31.13
67803;BME280;54601;51.378;-1.342;2022-07-29T07:39:07;100541.14;;;24.54;31.17
67803;BME280;54601;51.378;-1.342;2022-07-29T07:41:33;100540.38;;;24.65;31.07
67803;BME280;54601;51.378;-1.342;2022-07-29T07:43:58;100542.20;;;24.74;31.04
67803;BME280;54601;51.378;-1.342;2022-07-29T07:46:24;100545.50;;;24.71;31.12
67803;BME280;54601;51.378;-1.342;2022-07-29T07:48:50;100546.56;;;24.90;30.94
67803;BME280;54601;51.378;-1.342;2022-07-29T07:51:15;100544.92;;;24.87;31.02
67803;BME280;54601;51.378;-1.342;2022-07-29T07:53:41;100542.32;;;24.97;30.96
67803;BME280;54601;51.378;-1.342;2022-07-29T07:56:07;100542.15;;;25.00;30.99
67803;BME280;54601;51.378;-1.342;2022-07-29T07:58:33;100543.19;;;25.00;31.03
67803;BME280;54601;51.378;-1.342;2022-07-29T08:00:58;100545.83;;;24.87;30.96
67803;BME280;54601;51.378;-1.342;2022-07-29T08:03:24;100547.69;;;24.95;30.94
67803;BME280;54601;51.378;-1.342;2022-07-29T08:05:50;100546.27;;;24.77;30.88
67803;BME280;54601;51.378;-1.342;2022-07-29T08:08:15;100548.26;;;25.13;30.74
67803;BME280;54601;51.378;-1.342;2022-07-29T08:10:41;100548.08;;;25.33;30.59
67803;BME280;54601;51.378;-1.342;2022-07-29T08:13:08;100550.28;;;25.07;30.48
67803;BME280;54601;51.378;-1.342;2022-07-29T08:15:32;100552.28;;;25.08;30.41
67803;BME280;54601;51.378;-1.342;2022-07-29T08:17:58;100551.35;;;25.35;30.17
67803;BME280;54601;51.378;-1.342;2022-07-29T08:20:24;100552.18;;;25.14;30.19
67803;BME280;54601;51.378;-1.342;2022-07-29T08:22:49;100548.28;;;25.17;30.21
67803;BME280;54601;51.378;-1.342;2022-07-29T08:25:15;100542.65;;;25.28;30.09
67803;BME280;54601;51.378;-1.342;2022-07-29T08:27:40;100545.55;;;25.47;30.22
67803;BME280;54601;51.378;-1.342;2022-07-29T08:30:07;100541.77;;;25.31;30.13
67803;BME280;54601;51.378;-1.342;2022-07-29T08:32:32;100540.52;;;25.42;29.97
67803;BME280;54601;51.378;-1.342;2022-07-29T08:34:57;100542.34;;;25.42;29.99
67803;BME280;54601;51.378;-1.342;2022-07-29T08:37:23;100543.39;;;25.55;29.86
67803;BME280;54601;51.378;-1.342;2022-07-29T08:39:49;100545.64;;;25.59;29.81
67803;BME280;54601;51.378;-1.342;2022-07-29T08:42:15;100543.43;;;25.60;29.69
67803;BME280;54601;51.378;-1.342;2022-07-29T08:44:40;100542.84;;;25.71;29.53
67803;BME280;54601;51.378;-1.342;2022-07-29T08:47:06;100544.79;;;25.73;29.67
67803;BME280;54601;51.378;-1.342;2022-07-29T08:49:33;100546.95;;;25.76;29.67
67803;BME280;54601;51.378;-1.342;2022-07-29T08:51:57;100544.76;;;25.88;29.40
67803;BME280;54601;51.378;-1.342;2022-07-29T08:54:23;100544.36;;;25.87;29.32
67803;BME280;54601;51.378;-1.342;2022-07-29T08:56:51;100545.33;;;25.89;30.00
67803;BME280;54601;51.378;-1.342;2022-07-29T08:59:14;100544.82;;;26.00;29.79
67803;BME280;54601;51.378;-1.342;2022-07-29T09:01:40;100550.56;;;26.01;29.74
67803;BME280;54601;51.378;-1.342;2022-07-29T09:04:08;100547.12;;;26.11;29.45
67803;BME280;54601;51.378;-1.342;2022-07-29T09:06:32;100551.92;;;25.97;29.25
67803;BME280;54601;51.378;-1.342;2022-07-29T09:08:58;100548.19;;;26.02;29.30
67803;BME280;54601;51.378;-1.342;2022-07-29T09:11:22;100550.99;;;26.33;28.72
67803;BME280;54601;51.378;-1.342;2022-07-29T09:13:47;100553.43;;;26.02;28.97
67803;BME280;54601;51.378;-1.342;2022-07-29T09:16:13;100552.28;;;25.81;28.29
67803;BME280;54601;51.378;-1.342;2022-07-29T09:18:40;100550.67;;;26.01;28.67
67803;BME280;54601;51.378;-1.342;2022-07-29T09:21:06;100548.28;;;26.29;28.21
67803;BME280;54601;51.378;-1.342;2022-07-29T09:23:30;100544.54;;;26.50;28.13
67803;BME280;54601;51.378;-1.342;2022-07-29T09:25:55;100537.82;;;26.19;28.05
67803;BME280;54601;51.378;-1.342;2022-07-29T09:28:21;100533.94;;;26.48;27.94
67803;BME280;54601;51.378;-1.342;2022-07-29T09:30:51;100535.30;;;26.53;27.15
67803;BME280;54601;51.378;-1.342;2022-07-29T09:33:12;100532.01;;;26.56;26.78
67803;BME280;54601;51.378;-1.342;2022-07-29T09:35:38;100540.32;;;26.04;27.29
67803;BME280;54601;51.378;-1.342;2022-07-29T09:38:10;100539.86;;;26.42;26.53
67803;BME280;54601;51.378;-1.342;2022-07-29T09:40:29;100542.40;;;26.42;26.38
67803;BME280;54601;51.378;-1.342;2022-07-29T09:42:55;100538.98;;;26.11;26.68
67803;BME280;54601;51.378;-1.342;2022-07-29T09:45:26;100540.87;;;26.37;26.42
67803;BME280;54601;51.378;-1.342;2022-07-29T09:47:47;100539.06;;;26.42;26.30
67803;BME280;54601;51.378;-1.342;2022-07-29T09:50:11;100540.30;;;26.11;26.67
67803;BME280;54601;51.378;-1.342;2022-07-29T09:52:44;100540.55;;;26.63;26.63
67803;BME280;54601;51.378;-1.342;2022-07-29T09:55:07;100539.76;;;26.43;26.62
67803;BME280;54601;51.378;-1.342;2022-07-29T09:57:28;100537.88;;;26.22;26.77
67803;BME280;54601;51.378;-1.342;2022-07-29T09:59:58;100540.01;;;26.33;26.85
67803;BME280;54601;51.378;-1.342;2022-07-29T10:02:19;100532.79;;;26.38;26.62
67803;BME280;54601;51.378;-1.342;2022-07-29T10:04:45;100536.65;;;26.33;26.38
67803;BME280;54601;51.378;-1.342;2022-07-29T10:07:10;100539.47;;;26.37;26.33
67803;BME280;54601;51.378;-1.342;2022-07-29T10:09:36;100535.74;;;26.40;25.98
67803;BME280;54601;51.378;-1.342;2022-07-29T10:12:06;100539.84;;;26.36;26.07
67803;BME280;54601;51.378;-1.342;2022-07-29T10:14:27;100537.27;;;26.30;26.29
67803;BME280;54601;51.378;-1.342;2022-07-29T10:16:52;100532.95;;;26.46;26.21
67803;BME280;54601;51.378;-1.342;2022-07-29T10:19:18;100532.08;;;26.69;25.95
67803;BME280;54601;51.378;-1.342;2022-07-29T10:21:44;100530.42;;;26.65;26.22
67803;BME280;54601;51.378;-1.342;2022-07-29T10:24:09;100527.19;;;26.49;26.26
67803;BME280;54601;51.378;-1.342;2022-07-29T10:26:36;100525.60;;;26.38;26.54
67803;BME280;54601;51.378;-1.342;2022-07-29T10:29:00;100525.58;;;26.52;25.96
67803;BME280;54601;51.378;-1.342;2022-07-29T10:31:29;100525.47;;;26.61;26.11
67803;BME280;54601;51.378;-1.342;2022-07-29T10:33:59;100521.91;;;26.69;25.71
67803;BME280;54601;51.378;-1.342;2022-07-29T10:36:30;100522.89;;;26.81;25.79
67803;BME280;54601;51.378;-1.342;2022-07-29T10:38:47;100520.43;;;26.79;25.73
67803;BME280;54601;51.378;-1.342;2022-07-29T10:41:18;100521.65;;;26.85;25.75
67803;BME280;54601;51.378;-1.342;2022-07-29T10:43:37;100522.75;;;26.53;26.01
67803;BME280;54601;51.378;-1.342;2022-07-29T10:46:00;100524.56;;;26.75;25.78
67803;BME280;54601;51.378;-1.342;2022-07-29T10:48:26;100526.20;;;26.70;26.87
67803;BME280;54601;51.378;-1.342;2022-07-29T10:50:56;100529.56;;;26.76;26.72
67803;BME280;54601;51.378;-1.342;2022-07-29T10:53:16;100527.63;;;26.53;26.32
67803;BME280;54601;51.378;-1.342;2022-07-29T10:55:42;100526.57;;;26.74;26.59
67803;BME280;54601;51.378;-1.342;2022-07-29T10:58:14;100521.47;;;26.79;26.75
67803;BME280;54601;51.378;-1.342;2022-07-29T11:00:33;100526.36;;;26.57;25.95
67803;BME280;54601;51.378;-1.342;2022-07-29T11:02:58;100523.65;;;26.75;26.54
67803;BME280;54601;51.378;-1.342;2022-07-29T11:05:24;100523.92;;;26.74;26.63
67803;BME280;54601;51.378;-1.342;2022-07-29T11:10:20;100526.50;;;26.38;27.23
67803;BME280;54601;51.378;-1.342;2022-07-29T11:12:46;100523.83;;;26.68;27.56
67803;BME280;54601;51.378;-1.342;2022-07-29T11:15:07;100526.41;;;26.48;27.01
67803;BME280;54601;51.378;-1.342;2022-07-29T11:22:31;100531.44;;;26.71;27.72
67803;BME280;54601;51.378;-1.342;2022-07-29T11:27:16;100537.53;;;26.88;27.08
67803;BME280;54601;51.378;-1.342;2022-07-29T11:32:10;100534.91;;;26.80;26.79
67803;BME280;54601;51.378;-1.342;2022-07-29T11:34:32;100533.38;;;26.65;25.98
67803;BME280;54601;51.378;-1.342;2022-07-29T11:39:26;100528.61;;;26.73;26.37
67803;BME280;54601;51.378;-1.342;2022-07-29T11:41:47;100527.22;;;26.57;25.88
67803;BME280;54601;51.378;-1.342;2022-07-29T11:44:13;100527.20;;;26.50;26.22
67803;BME280;54601;51.378;-1.342;2022-07-29T11:46:43;100522.56;;;26.79;26.39
67803;BME280;54601;51.378;-1.342;2022-07-29T11:49:04;100521.65;;;26.78;25.94
67803;BME280;54601;51.378;-1.342;2022-07-29T11:51:29;100519.31;;;26.75;26.42
67803;BME280;54601;51.378;-1.342;2022-07-29T11:53:55;100514.20;;;26.74;26.43
67803;BME280;54601;51.378;-1.342;2022-07-29T11:56:21;100517.02;;;26.75;26.45
67803;BME280;54601;51.378;-1.342;2022-07-29T11:58:46;100516.35;;;26.70;26.94
67803;BME280;54601;51.378;-1.342;2022-07-29T12:01:13;100515.05;;;26.78;27.03
67803;BME280;54601;51.378;-1.342;2022-07-29T12:03:37;100510.14;;;26.80;26.87
67803;BME280;54601;51.378;-1.342;2022-07-29T12:06:04;100510.30;;;26.78;26.36
67803;BME280;54601;51.378;-1.342;2022-07-29T12:08:28;100508.05;;;26.77;27.01
67803;BME280;54601;51.378;-1.342;2022-07-29T12:10:54;100511.01;;;26.94;26.56
67803;BME280;54601;51.378;-1.342;2022-07-29T12:13:20;100505.93;;;26.91;26.94
67803;BME280;54601;51.378;-1.342;2022-07-29T12:15:53;100505.03;;;26.86;27.16
67803;BME280;54601;51.378;-1.342;2022-07-29T12:18:12;100502.78;;;26.56;27.00
67803;BME280;54601;51.378;-1.342;2022-07-29T12:20:36;100496.57;;;26.92;27.24
67803;BME280;54601;51.378;-1.342;2022-07-29T12:23:05;100496.96;;;26.98;27.16
67803;BME280;54601;51.378;-1.342;2022-07-29T12:25:27;100494.08;;;26.71;26.94
67803;BME280;54601;51.378;-1.342;2022-07-29T12:27:57;100486.62;;;27.10;27.21
67803;BME280;54601;51.378;-1.342;2022-07-29T12:30:18;100483.93;;;26.78;25.94
67803;BME280;54601;51.378;-1.342;2022-07-29T12:32:45;100482.20;;;26.97;26.75
67803;BME280;54601;51.378;-1.342;2022-07-29T12:35:10;100482.69;;;26.90;26.68
67803;BME280;54601;51.378;-1.342;2022-07-29T12:37:36;100486.85;;;26.85;26.23
67803;BME280;54601;51.378;-1.342;2022-07-29T12:40:01;100482.93;;;26.89;25.59
67803;BME280;54601;51.378;-1.342;2022-07-29T12:42:26;100483.79;;;27.13;26.69
67803;BME280;54601;51.378;-1.342;2022-07-29T12:44:51;100484.48;;;26.77;25.77
67803;BME280;54601;51.378;-1.342;2022-07-29T12:47:18;100482.64;;;27.09;25.80